createdAt,value
2017-12-23T00:00:25.315Z,1.40
2017-12-23T00:02:52.178Z,1.30
2017-12-23T00:05:19.071Z,1.30
2017-12-23T00:07:45.931Z,1.40
2017-12-23T00:10:13.538Z,1.40
2017-12-23T00:12:40.402Z,1.30
2017-12-23T00:15:07.235Z,1.40
2017-12-23T00:17:34.095Z,1.30
2017-12-23T00:20:00.922Z,1.30
2017-12-23T00:22:27.772Z,1.30
2017-12-23T00:24:55.350Z,1.10
2017-12-23T00:27:22.186Z,1.10
2017-12-23T00:29:49.057Z,1.10
2017-12-23T00:32:15.894Z,1.10
2017-12-23T00:34:42.722Z,1.10
2017-12-23T00:37:09.578Z,1.10
2017-12-23T00:39:36.404Z,1.00
2017-12-23T00:42:03.281Z,1.00
2017-12-23T00:44:30.110Z,0.90
2017-12-23T00:46:56.935Z,0.90
2017-12-23T00:49:23.814Z,1.00
2017-12-23T00:51:50.729Z,1.00
2017-12-23T00:54:17.529Z,1.00
2017-12-23T00:56:44.368Z,1.00
2017-12-23T00:59:11.206Z,1.10
2017-12-23T01:01:39.788Z,1.20
2017-12-23T01:04:06.622Z,1.20
2017-12-23T01:06:33.505Z,1.20
2017-12-23T01:09:01.070Z,1.00
2017-12-23T01:11:28.682Z,1.00
2017-12-23T01:13:55.514Z,1.00
2017-12-23T01:16:22.402Z,1.10
2017-12-23T01:18:49.243Z,1.00
2017-12-23T01:21:16.854Z,1.00
2017-12-23T01:23:43.693Z,1.00
2017-12-23T01:26:11.295Z,1.00
2017-12-23T01:28:38.151Z,1.10
2017-12-23T01:31:04.997Z,1.10
2017-12-23T01:33:31.835Z,1.20
2017-12-23T01:35:58.662Z,1.20
2017-12-23T01:38:25.527Z,1.20
2017-12-23T01:40:52.392Z,1.10
2017-12-23T01:43:20.006Z,1.10
2017-12-23T01:45:46.868Z,1.10
2017-12-23T01:48:25.951Z,1.00
2017-12-23T01:50:52.777Z,1.00
2017-12-23T01:53:20.362Z,0.90
2017-12-23T01:55:47.943Z,1.00
2017-12-23T01:58:15.537Z,1.20
2017-12-23T02:00:43.156Z,1.10
2017-12-23T02:03:10.005Z,1.10
2017-12-23T02:05:36.854Z,1.00
2017-12-23T02:08:03.653Z,0.90
2017-12-23T02:10:30.511Z,0.80
2017-12-23T02:12:57.338Z,0.80
2017-12-23T02:15:24.190Z,0.80
2017-12-23T02:17:51.075Z,0.80
2017-12-23T02:20:17.934Z,0.90
2017-12-23T02:22:44.746Z,0.80
2017-12-23T02:25:11.607Z,0.60
2017-12-23T02:27:38.454Z,0.70
2017-12-23T02:30:05.288Z,0.80
2017-12-23T02:32:32.162Z,0.70
2017-12-23T02:34:59.746Z,0.70
2017-12-23T02:37:26.594Z,0.70
2017-12-23T02:39:53.443Z,0.60
2017-12-23T02:42:21.266Z,0.60
2017-12-23T02:44:48.137Z,0.50
2017-12-23T02:47:15.744Z,0.60
2017-12-23T02:49:42.590Z,0.60
2017-12-23T02:52:09.467Z,0.60
2017-12-23T02:54:36.327Z,0.60
2017-12-23T02:57:03.203Z,0.60
2017-12-23T02:59:30.054Z,0.50
2017-12-23T03:01:56.913Z,0.50
2017-12-23T03:04:23.797Z,0.50
2017-12-23T03:06:50.645Z,0.50
2017-12-23T03:09:17.569Z,0.50
2017-12-23T03:11:44.392Z,0.60
2017-12-23T03:14:11.245Z,0.70
2017-12-23T03:16:38.086Z,0.70
2017-12-23T03:19:04.933Z,0.70
2017-12-23T03:21:31.793Z,0.60
2017-12-23T03:23:59.383Z,0.50
2017-12-23T03:26:26.222Z,0.50
2017-12-23T03:28:53.079Z,0.50
2017-12-23T03:31:19.935Z,0.60
2017-12-23T03:33:46.784Z,0.60
2017-12-23T03:36:13.638Z,0.60
2017-12-23T03:38:40.510Z,0.60
2017-12-23T03:41:07.386Z,0.70
2017-12-23T03:43:34.228Z,0.80
2017-12-23T03:46:01.099Z,0.80
2017-12-23T03:48:27.991Z,0.80
2017-12-23T03:50:54.881Z,0.90
2017-12-23T03:53:21.721Z,0.70
2017-12-23T03:55:48.543Z,0.80
2017-12-23T03:58:15.419Z,0.80
2017-12-23T04:00:42.315Z,0.80
2017-12-23T04:03:09.167Z,0.70
2017-12-23T04:05:35.997Z,0.60
2017-12-23T04:08:02.851Z,0.60
2017-12-23T04:10:29.934Z,0.60
2017-12-23T04:12:56.750Z,0.50
2017-12-23T04:15:24.518Z,0.50
2017-12-23T04:17:51.351Z,0.50
2017-12-23T04:20:18.195Z,0.40
2017-12-23T04:22:45.075Z,0.40
2017-12-23T04:25:11.901Z,0.40
2017-12-23T04:27:38.786Z,0.40
2017-12-23T04:30:06.383Z,0.50
2017-12-23T04:32:33.242Z,0.50
2017-12-23T04:35:00.264Z,0.40
2017-12-23T04:37:28.035Z,0.40
2017-12-23T04:39:54.920Z,0.30
2017-12-23T04:42:21.757Z,0.40
2017-12-23T04:44:48.610Z,0.30
2017-12-23T04:47:16.214Z,0.50
2017-12-23T04:49:43.054Z,0.50
2017-12-23T04:52:10.644Z,0.40
2017-12-23T04:54:38.290Z,0.40
2017-12-23T04:57:05.083Z,0.40
2017-12-23T04:59:32.651Z,0.40
2017-12-23T05:02:00.265Z,0.40
2017-12-23T05:04:27.098Z,0.40
2017-12-23T05:06:53.918Z,0.40
2017-12-23T05:09:20.801Z,0.30
2017-12-23T05:11:47.610Z,0.20
2017-12-23T05:14:14.438Z,0.20
2017-12-23T05:16:41.275Z,0.30
2017-12-23T05:19:15.878Z,0.40
2017-12-23T05:21:43.486Z,0.40
2017-12-23T05:24:10.455Z,0.30
2017-12-23T05:26:38.086Z,0.30
2017-12-23T05:29:04.943Z,0.30
2017-12-23T05:31:31.814Z,0.20
2017-12-23T05:33:58.653Z,0.20
2017-12-23T05:36:25.489Z,0.20
2017-12-23T05:38:52.322Z,0.30
2017-12-23T05:41:19.217Z,0.20
2017-12-23T05:43:46.054Z,0.20
2017-12-23T05:46:12.922Z,0.10
2017-12-23T05:48:39.782Z,0.20
2017-12-23T05:51:07.386Z,0.20
2017-12-23T05:53:34.998Z,0.20
2017-12-23T05:56:01.861Z,0.20
2017-12-23T05:58:28.702Z,0.10
2017-12-23T06:00:55.569Z,0.10
2017-12-23T06:03:22.434Z,0.20
2017-12-23T06:05:50.030Z,0.30
2017-12-23T06:08:16.851Z,0.30
2017-12-23T06:10:43.707Z,0.40
2017-12-23T06:13:11.283Z,0.50
2017-12-23T06:15:38.122Z,0.50
2017-12-23T06:18:04.953Z,0.50
2017-12-23T06:20:31.810Z,0.50
2017-12-23T06:22:58.658Z,0.60
2017-12-23T06:25:25.495Z,0.80
2017-12-23T06:27:52.359Z,0.80
2017-12-23T06:30:19.224Z,0.70
2017-12-23T06:32:47.412Z,0.90
2017-12-23T06:35:15.267Z,0.90
2017-12-23T06:37:42.158Z,0.90
2017-12-23T06:40:08.977Z,0.90
2017-12-23T06:42:35.821Z,0.80
2017-12-23T06:45:02.710Z,0.90
2017-12-23T06:47:29.574Z,0.80
2017-12-23T06:49:56.398Z,0.80
2017-12-23T06:52:23.238Z,0.80
2017-12-23T06:54:50.123Z,0.80
2017-12-23T06:57:17.006Z,0.70
2017-12-23T06:59:43.894Z,0.70
2017-12-23T07:02:12.539Z,0.80
2017-12-23T07:04:39.450Z,0.80
2017-12-23T07:07:06.595Z,0.80
2017-12-23T07:09:33.674Z,0.70
2017-12-23T07:12:01.027Z,0.70
2017-12-23T07:14:27.890Z,0.70
2017-12-23T07:16:54.750Z,0.60
2017-12-23T07:19:21.599Z,0.70
2017-12-23T07:21:48.485Z,0.80
2017-12-23T07:24:15.341Z,0.80
2017-12-23T07:26:42.173Z,0.90
2017-12-23T07:29:09.010Z,1.00
2017-12-23T07:31:35.874Z,1.10
2017-12-23T07:34:02.722Z,1.20
2017-12-23T07:36:29.578Z,1.30
2017-12-23T07:38:56.406Z,1.30
2017-12-23T07:41:23.330Z,1.30
2017-12-23T07:43:50.161Z,1.40
2017-12-23T07:46:17.038Z,1.50
2017-12-23T07:48:43.890Z,1.50
2017-12-23T07:51:10.767Z,1.50
2017-12-23T07:53:38.366Z,1.80
2017-12-23T07:56:05.907Z,1.80
2017-12-23T07:58:33.466Z,2.00
2017-12-23T08:01:00.278Z,2.00
2017-12-23T08:03:27.923Z,2.00
2017-12-23T08:05:54.744Z,1.90
2017-12-23T08:08:21.625Z,2.00
2017-12-23T08:10:48.457Z,2.20
2017-12-23T08:13:15.371Z,2.30
2017-12-23T08:15:42.201Z,2.50
2017-12-23T08:18:09.911Z,2.50
2017-12-23T08:20:38.580Z,2.40
2017-12-23T08:23:06.230Z,2.50
2017-12-23T08:25:34.398Z,2.50
2017-12-23T08:28:01.462Z,2.50
2017-12-23T08:30:28.369Z,2.50
2017-12-23T08:32:55.234Z,2.50
2017-12-23T08:35:22.098Z,2.50
2017-12-23T08:37:48.975Z,2.70
2017-12-23T08:40:15.798Z,2.80
2017-12-23T08:42:42.674Z,3.00
2017-12-23T08:45:10.266Z,3.10
2017-12-23T08:47:37.118Z,3.00
2017-12-23T08:50:03.950Z,3.20
2017-12-23T08:52:30.985Z,3.30
2017-12-23T08:54:57.878Z,3.50
2017-12-23T08:57:24.746Z,3.60
2017-12-23T08:59:52.322Z,3.60
2017-12-23T09:02:19.162Z,3.50
2017-12-23T09:04:46.030Z,3.50
2017-12-23T09:07:12.886Z,3.50
2017-12-23T09:09:39.776Z,3.50
2017-12-23T09:12:07.398Z,3.50
2017-12-23T09:14:34.206Z,3.50
2017-12-23T09:17:01.083Z,3.50
2017-12-23T09:19:27.951Z,3.70
2017-12-23T09:21:54.823Z,3.70
2017-12-23T09:24:22.372Z,3.60
2017-12-23T09:26:49.974Z,3.60
2017-12-23T09:29:16.811Z,3.60
2017-12-23T09:31:43.742Z,3.70
2017-12-23T09:34:10.610Z,3.70
2017-12-23T09:36:37.461Z,3.80
2017-12-23T09:39:04.342Z,3.90
2017-12-23T09:41:31.207Z,4.10
2017-12-23T09:43:58.784Z,4.20
2017-12-23T09:46:25.642Z,4.10
2017-12-23T09:48:52.515Z,4.30
2017-12-23T09:51:19.355Z,4.50
2017-12-23T09:53:46.230Z,4.60
2017-12-23T09:56:13.835Z,4.70
2017-12-23T09:58:40.725Z,4.70
2017-12-23T10:01:07.736Z,5.00
2017-12-23T10:03:34.662Z,5.20
2017-12-23T10:06:01.534Z,5.40
2017-12-23T10:08:28.367Z,5.40
2017-12-23T10:10:55.246Z,5.60
2017-12-23T10:13:22.818Z,6.10
2017-12-23T10:15:49.691Z,6.10
2017-12-23T10:18:16.603Z,6.30
2017-12-23T10:20:43.564Z,6.50
2017-12-23T10:23:10.539Z,6.90
2017-12-23T10:25:37.402Z,7.60
2017-12-23T10:28:04.224Z,8.80
2017-12-23T10:30:31.111Z,10.00
2017-12-23T10:32:58.694Z,12.70
2017-12-23T10:35:25.634Z,12.60
2017-12-23T10:37:52.495Z,13.80
2017-12-23T10:40:19.356Z,14.80
2017-12-23T10:42:47.329Z,15.20
2017-12-23T10:45:14.373Z,15.40
2017-12-23T10:47:41.258Z,15.20
2017-12-23T10:50:08.234Z,14.40
2017-12-23T10:52:35.147Z,13.70
2017-12-23T10:55:02.374Z,12.40
2017-12-23T10:57:29.263Z,12.20
2017-12-23T10:59:56.986Z,13.90
2017-12-23T11:02:23.869Z,13.90
2017-12-23T11:04:51.694Z,14.60
2017-12-23T11:07:18.542Z,14.60
2017-12-23T11:09:45.606Z,14.60
2017-12-23T11:12:12.474Z,15.40
2017-12-23T11:14:39.714Z,16.30
2017-12-23T11:17:07.317Z,16.90
2017-12-23T11:19:34.438Z,16.80
2017-12-23T11:22:01.316Z,17.30
2017-12-23T11:24:28.350Z,17.10
2017-12-23T11:26:55.183Z,17.70
2017-12-23T11:29:22.163Z,18.30
2017-12-23T11:31:49.212Z,17.70
2017-12-23T11:34:16.042Z,16.70
2017-12-23T11:36:42.929Z,16.40
2017-12-23T11:39:10.574Z,16.70
2017-12-23T11:41:37.574Z,16.70
2017-12-23T11:44:04.453Z,17.00
2017-12-23T11:46:31.477Z,17.10
2017-12-23T11:48:58.515Z,17.40
2017-12-23T11:51:26.356Z,17.60
2017-12-23T11:53:54.087Z,17.00
2017-12-23T11:56:20.994Z,17.00
2017-12-23T11:58:47.965Z,15.80
2017-12-23T12:01:14.847Z,15.70
2017-12-23T12:03:42.603Z,15.00
2017-12-23T12:06:10.321Z,14.90
2017-12-23T12:08:37.266Z,14.90
2017-12-23T12:11:04.146Z,15.30
2017-12-23T12:13:31.058Z,16.70
2017-12-23T12:15:57.882Z,17.00
2017-12-23T12:18:24.717Z,15.80
2017-12-23T12:20:51.576Z,14.80
2017-12-23T12:23:18.494Z,12.80
2017-12-23T12:25:46.070Z,14.70
2017-12-23T12:28:12.923Z,14.70
2017-12-23T12:30:40.679Z,16.90
2017-12-23T12:33:07.518Z,16.80
2017-12-23T12:35:35.222Z,17.90
2017-12-23T12:38:02.824Z,19.00
2017-12-23T12:40:30.543Z,19.50
2017-12-23T12:42:58.169Z,19.30
2017-12-23T12:45:25.085Z,19.30
2017-12-23T12:47:52.138Z,18.50
2017-12-23T12:50:19.038Z,17.50
2017-12-23T12:52:47.045Z,16.60
2017-12-23T12:55:14.650Z,13.60
2017-12-23T12:57:41.490Z,13.50
2017-12-23T13:00:08.381Z,12.90
2017-12-23T13:02:36.175Z,13.40
2017-12-23T13:05:03.066Z,13.40
2017-12-23T13:07:30.170Z,14.10
2017-12-23T13:09:57.097Z,14.40
2017-12-23T13:12:24.213Z,14.90
2017-12-23T13:14:51.166Z,15.10
2017-12-23T13:17:18.035Z,15.90
2017-12-23T13:19:45.037Z,15.90
2017-12-23T13:22:11.930Z,16.10
2017-12-23T13:24:38.928Z,15.70
2017-12-23T13:27:05.846Z,15.80
2017-12-23T13:29:32.686Z,15.70
2017-12-23T13:31:59.614Z,14.40
2017-12-23T13:34:26.717Z,13.30
2017-12-23T13:36:53.636Z,13.00
2017-12-23T13:39:20.511Z,13.00
2017-12-23T13:41:47.355Z,12.90
2017-12-23T13:44:14.248Z,12.30
2017-12-23T13:46:41.237Z,11.70
2017-12-23T13:49:08.129Z,11.30
2017-12-23T13:51:35.926Z,10.80
2017-12-23T13:54:03.690Z,10.80
2017-12-23T13:56:30.546Z,10.40
2017-12-23T13:58:57.569Z,10.20
2017-12-23T14:01:24.419Z,9.90
2017-12-23T14:03:51.401Z,9.40
2017-12-23T14:06:19.306Z,9.50
2017-12-23T14:08:46.512Z,9.50
2017-12-23T14:11:13.346Z,9.50
2017-12-23T14:13:40.339Z,9.40
2017-12-23T14:16:07.894Z,9.10
2017-12-23T14:18:35.547Z,8.90
2017-12-23T14:21:03.287Z,8.80
2017-12-23T14:23:30.189Z,8.80
2017-12-23T14:25:57.066Z,8.90
2017-12-23T14:28:23.915Z,8.80
2017-12-23T14:30:50.959Z,8.60
2017-12-23T14:33:17.819Z,8.40
2017-12-23T14:35:44.858Z,8.00
2017-12-23T14:38:11.762Z,7.90
2017-12-23T14:40:38.605Z,7.90
2017-12-23T14:43:06.349Z,7.80
2017-12-23T14:45:33.330Z,7.70
2017-12-23T14:48:00.314Z,7.70
2017-12-23T14:50:27.514Z,7.60
2017-12-23T14:52:55.251Z,7.40
2017-12-23T14:55:22.304Z,7.40
2017-12-23T14:57:49.175Z,7.20
2017-12-23T15:00:16.377Z,7.10
2017-12-23T15:02:43.223Z,7.00
2017-12-23T15:05:10.268Z,6.80
2017-12-23T15:07:37.861Z,6.70
2017-12-23T15:10:05.062Z,6.60
2017-12-23T15:12:31.980Z,6.60
2017-12-23T15:14:59.198Z,6.50
2017-12-23T15:17:26.275Z,6.40
2017-12-23T15:19:53.285Z,6.30
2017-12-23T15:22:20.139Z,6.20
2017-12-23T15:24:47.091Z,6.10
2017-12-23T15:27:14.150Z,6.10
2017-12-23T15:29:40.998Z,6.00
2017-12-23T15:32:08.992Z,6.00
2017-12-23T15:34:36.390Z,5.90
2017-12-23T15:37:05.095Z,5.70
2017-12-23T15:39:32.716Z,5.60
2017-12-23T15:41:59.919Z,5.60
2017-12-23T15:44:27.889Z,5.40
2017-12-23T15:46:55.852Z,5.30
2017-12-23T15:49:23.033Z,5.30
2017-12-23T15:51:50.482Z,5.20
2017-12-23T15:54:18.047Z,5.00
2017-12-23T15:56:46.608Z,5.00
2017-12-23T15:59:14.504Z,5.00
2017-12-23T16:01:41.723Z,4.90
2017-12-23T16:04:09.225Z,4.90
2017-12-23T16:06:37.404Z,4.70
2017-12-23T16:09:05.687Z,4.70
2017-12-23T16:11:33.826Z,4.70
2017-12-23T16:14:01.006Z,4.70
2017-12-23T16:16:28.204Z,4.60
2017-12-23T16:18:55.716Z,4.60
2017-12-23T16:21:22.895Z,4.50
2017-12-23T16:23:50.790Z,4.40
2017-12-23T16:26:21.301Z,4.30
2017-12-23T16:28:49.212Z,4.40
2017-12-23T16:31:19.676Z,4.40
2017-12-23T16:33:47.476Z,4.40
2017-12-23T16:36:15.684Z,4.30
2017-12-23T16:38:42.743Z,4.30
2017-12-23T16:41:09.607Z,4.30
2017-12-23T16:43:36.518Z,4.20
2017-12-23T16:46:04.119Z,4.20
2017-12-23T16:48:31.050Z,4.20
2017-12-23T16:50:57.946Z,4.30
2017-12-23T16:53:24.848Z,4.30
2017-12-23T16:55:51.771Z,4.40
2017-12-23T16:58:18.723Z,4.40
2017-12-23T17:00:48.068Z,4.30
2017-12-23T17:03:15.216Z,4.30
2017-12-23T17:05:42.073Z,4.30
2017-12-23T17:08:08.918Z,4.40
2017-12-23T17:10:35.770Z,4.40
2017-12-23T17:13:02.673Z,4.50
2017-12-23T17:15:29.599Z,4.40
2017-12-23T17:17:56.546Z,4.40
2017-12-23T17:20:23.454Z,4.40
2017-12-23T17:22:50.542Z,4.40
2017-12-23T17:25:18.202Z,4.30
2017-12-23T17:27:45.082Z,4.30
2017-12-23T17:30:24.266Z,4.40
2017-12-23T17:32:51.894Z,4.30
2017-12-23T17:35:18.758Z,4.20
2017-12-23T17:37:46.350Z,4.30
2017-12-23T17:40:13.198Z,4.30
2017-12-23T17:42:40.033Z,4.30
2017-12-23T17:45:07.676Z,4.20
2017-12-23T17:47:34.553Z,4.20
2017-12-23T17:50:01.383Z,4.20
2017-12-23T17:52:28.326Z,4.20
2017-12-23T17:54:55.158Z,4.20
2017-12-23T17:57:22.730Z,4.10
2017-12-23T17:59:49.592Z,4.00
2017-12-23T18:02:16.435Z,4.00
2017-12-23T18:04:43.347Z,3.90
2017-12-23T18:07:10.931Z,3.90
2017-12-23T18:09:37.790Z,3.90
2017-12-23T18:12:04.685Z,3.90
2017-12-23T18:14:32.282Z,3.90
2017-12-23T18:16:59.126Z,3.90
2017-12-23T18:19:26.006Z,3.90
2017-12-23T18:21:52.886Z,3.90
2017-12-23T18:24:19.720Z,3.90
2017-12-23T18:26:46.577Z,3.90
2017-12-23T18:29:13.475Z,3.80
2017-12-23T18:31:40.366Z,3.80
2017-12-23T18:34:07.241Z,3.70
2017-12-23T18:36:34.106Z,3.70
2017-12-23T18:39:01.372Z,4.20
2017-12-23T18:41:33.711Z,4.30
2017-12-23T18:44:03.187Z,4.30
2017-12-23T18:46:39.179Z,4.30
2017-12-23T18:49:10.331Z,4.80
2017-12-23T18:51:47.792Z,4.70
2017-12-23T18:54:18.081Z,5.10
2017-12-23T18:56:45.424Z,5.40
2017-12-23T18:59:12.512Z,5.50
2017-12-23T19:01:43.714Z,5.80
2017-12-23T19:04:13.701Z,6.30
2017-12-23T19:06:45.165Z,6.30
2017-12-23T19:09:20.330Z,6.70
2017-12-23T20:21:44.930Z,6.60
2017-12-23T20:24:11.806Z,7.70
2017-12-23T20:26:38.648Z,7.70
2017-12-23T20:29:05.563Z,7.60
2017-12-23T20:31:32.431Z,7.40
2017-12-23T20:34:00.023Z,7.70
2017-12-23T20:36:26.890Z,7.70
2017-12-23T20:38:53.811Z,7.90
2017-12-23T20:41:20.659Z,7.90
2017-12-23T20:43:47.806Z,8.00
2017-12-23T20:46:15.493Z,8.20
2017-12-23T20:48:42.386Z,8.20
2017-12-23T20:51:10.012Z,8.30
2017-12-23T20:53:36.881Z,8.30
2017-12-23T20:56:04.503Z,8.40
2017-12-23T20:58:31.369Z,8.40
2017-12-23T21:00:58.300Z,8.50
2017-12-23T21:03:25.231Z,8.60
2017-12-23T21:05:52.066Z,8.70
2017-12-23T21:08:19.233Z,8.80
2017-12-23T21:10:46.171Z,8.70
2017-12-23T21:13:13.044Z,8.70
2017-12-23T21:15:39.895Z,8.60
2017-12-23T21:18:06.727Z,8.70
2017-12-23T21:20:33.542Z,8.70
2017-12-23T21:23:00.390Z,8.70
2017-12-23T21:25:27.220Z,8.60
2017-12-23T21:27:54.087Z,8.70
2017-12-23T21:30:20.954Z,8.70
2017-12-23T21:32:48.563Z,8.70
2017-12-23T21:35:16.127Z,8.80
2017-12-23T21:37:43.019Z,8.80
2017-12-23T21:40:10.222Z,9.00
2017-12-23T21:42:37.182Z,8.90
2017-12-23T21:45:04.070Z,8.90
2017-12-23T21:47:32.057Z,9.00
2017-12-23T21:49:59.022Z,8.90
2017-12-23T21:52:25.975Z,8.90
2017-12-23T21:54:52.802Z,8.80
2017-12-23T21:57:19.718Z,8.70
2017-12-23T21:59:46.549Z,8.80
2017-12-23T22:02:13.394Z,8.90
2017-12-23T22:04:40.286Z,9.00
2017-12-23T22:07:07.101Z,9.00
2017-12-23T22:09:33.985Z,8.90
2017-12-23T22:12:00.862Z,8.90
2017-12-23T22:14:27.697Z,8.90
2017-12-23T22:16:54.571Z,8.80
2017-12-23T22:19:22.166Z,8.70
2017-12-23T22:21:49.007Z,8.60
2017-12-23T22:24:15.862Z,8.60
2017-12-23T22:26:42.717Z,8.60
2017-12-23T22:29:09.615Z,8.50
2017-12-23T22:31:36.443Z,8.60
2017-12-23T22:34:04.038Z,8.70
2017-12-23T22:36:30.910Z,8.60
2017-12-23T22:38:57.766Z,8.60
2017-12-23T22:41:25.346Z,8.60
2017-12-23T22:43:52.950Z,8.50
2017-12-23T22:46:19.780Z,8.50
2017-12-23T22:48:46.634Z,8.50
2017-12-23T22:51:13.483Z,8.50
2017-12-23T22:53:40.338Z,8.60
2017-12-23T22:56:07.180Z,8.60
2017-12-23T22:58:33.993Z,7.90
2017-12-23T23:01:00.870Z,7.30
2017-12-23T23:03:27.750Z,7.00
2017-12-23T23:05:54.616Z,6.70
2017-12-23T23:08:21.486Z,6.40
2017-12-23T23:10:48.326Z,6.30
2017-12-23T23:13:15.170Z,6.30
2017-12-23T23:15:41.998Z,6.30
2017-12-23T23:18:09.029Z,6.30
2017-12-23T23:20:35.954Z,6.30
2017-12-23T23:23:02.842Z,6.20
2017-12-23T23:25:29.662Z,6.20
2017-12-23T23:27:56.585Z,6.20
2017-12-23T23:30:23.434Z,6.20
2017-12-23T23:32:51.053Z,6.10
2017-12-23T23:35:17.878Z,6.10
2017-12-23T23:37:44.755Z,5.90
2017-12-23T23:40:11.589Z,5.90
2017-12-23T23:42:38.449Z,5.90
2017-12-23T23:45:05.286Z,6.00
2017-12-23T23:47:32.167Z,6.00
2017-12-23T23:49:59.038Z,6.00
2017-12-23T23:52:25.907Z,6.00
2017-12-23T23:54:52.706Z,5.90
2017-12-23T23:57:19.638Z,5.80
2017-12-23T23:59:46.445Z,5.80
